sensor_id;sensor_type;location;lat;lon;timestamp;P1;durP1;ratioP1;P2;durP2;ratioP2
72676;SDS011;60755;51.374;10.662;2023-02-15T00:01:33;58.60;;;26.07;;
72676;SDS011;60755;51.374;10.662;2023-02-15T00:04:01;55.47;;;25.37;;
72676;SDS011;60755;51.374;10.662;2023-02-15T00:06:29;55.73;;;25.87;;
72676;SDS011;60755;51.374;10.662;2023-02-15T00:08:56;65.23;;;28.43;;
72676;SDS011;60755;51.374;10.662;2023-02-15T00:11:24;59.27;;;25.93;;
72676;SDS011;60755;51.374;10.662;2023-02-15T00:14:10;60.93;;;27.57;;
72676;SDS011;60755;51.374;10.662;2023-02-15T00:16:39;58.90;;;25.80;;
72676;SDS011;60755;51.374;10.662;2023-02-15T00:19:08;58.50;;;25.80;;
72676;SDS011;60755;51.374;10.662;2023-02-15T00:21:36;54.27;;;25.07;;
72676;SDS011;60755;51.374;10.662;2023-02-15T00:24:05;53.60;;;24.43;;
72676;SDS011;60755;51.374;10.662;2023-02-15T00:26:34;46.60;;;21.73;;
72676;SDS011;60755;51.374;10.662;2023-02-15T00:29:02;45.20;;;20.67;;
72676;SDS011;60755;51.374;10.662;2023-02-15T00:31:31;44.77;;;19.47;;
72676;SDS011;60755;51.374;10.662;2023-02-15T00:34:01;42.03;;;20.20;;
72676;SDS011;60755;51.374;10.662;2023-02-15T00:36:29;42.27;;;18.77;;
72676;SDS011;60755;51.374;10.662;2023-02-15T00:38:56;39.77;;;18.33;;
72676;SDS011;60755;51.374;10.662;2023-02-15T00:41:23;38.97;;;18.17;;
72676;SDS011;60755;51.374;10.662;2023-02-15T00:43:53;35.83;;;17.63;;
72676;SDS011;60755;51.374;10.662;2023-02-15T00:46:20;38.37;;;18.63;;
72676;SDS011;60755;51.374;10.662;2023-02-15T00:48:49;36.03;;;17.23;;
72676;SDS011;60755;51.374;10.662;2023-02-15T00:51:16;35.73;;;16.63;;
72676;SDS011;60755;51.374;10.662;2023-02-15T00:53:43;42.73;;;18.90;;
72676;SDS011;60755;51.374;10.662;2023-02-15T00:56:11;67.13;;;29.60;;
72676;SDS011;60755;51.374;10.662;2023-02-15T00:58:38;47.10;;;22.83;;
72676;SDS011;60755;51.374;10.662;2023-02-15T01:01:09;43.23;;;19.87;;
72676;SDS011;60755;51.374;10.662;2023-02-15T01:03:38;42.13;;;18.60;;
72676;SDS011;60755;51.374;10.662;2023-02-15T01:06:09;42.17;;;18.33;;
72676;SDS011;60755;51.374;10.662;2023-02-15T01:08:37;33.90;;;16.27;;
72676;SDS011;60755;51.374;10.662;2023-02-15T01:11:08;42.47;;;17.47;;
72676;SDS011;60755;51.374;10.662;2023-02-15T01:13:37;37.40;;;16.33;;
72676;SDS011;60755;51.374;10.662;2023-02-15T01:16:05;36.00;;;16.03;;
72676;SDS011;60755;51.374;10.662;2023-02-15T01:18:33;30.07;;;15.23;;
72676;SDS011;60755;51.374;10.662;2023-02-15T01:21:08;27.47;;;13.10;;
72676;SDS011;60755;51.374;10.662;2023-02-15T01:23:39;25.13;;;12.83;;
72676;SDS011;60755;51.374;10.662;2023-02-15T01:26:07;28.50;;;12.50;;
72676;SDS011;60755;51.374;10.662;2023-02-15T01:28:35;25.13;;;12.47;;
72676;SDS011;60755;51.374;10.662;2023-02-15T01:31:06;27.60;;;11.93;;
72676;SDS011;60755;51.374;10.662;2023-02-15T01:33:34;20.93;;;10.83;;
72676;SDS011;60755;51.374;10.662;2023-02-15T01:36:02;22.87;;;11.10;;
72676;SDS011;60755;51.374;10.662;2023-02-15T01:38:32;20.93;;;10.87;;
72676;SDS011;60755;51.374;10.662;2023-02-15T01:41:02;17.63;;;10.27;;
72676;SDS011;60755;51.374;10.662;2023-02-15T01:43:50;18.03;;;9.87;;
72676;SDS011;60755;51.374;10.662;2023-02-15T01:46:20;17.77;;;10.10;;
72676;SDS011;60755;51.374;10.662;2023-02-15T01:48:52;18.80;;;9.57;;
72676;SDS011;60755;51.374;10.662;2023-02-15T01:51:24;16.33;;;10.17;;
72676;SDS011;60755;51.374;10.662;2023-02-15T01:53:59;16.97;;;9.13;;
72676;SDS011;60755;51.374;10.662;2023-02-15T01:56:30;16.80;;;9.03;;
72676;SDS011;60755;51.374;10.662;2023-02-15T01:59:03;14.63;;;8.47;;
72676;SDS011;60755;51.374;10.662;2023-02-15T02:01:34;14.90;;;8.23;;
72676;SDS011;60755;51.374;10.662;2023-02-15T02:04:03;16.97;;;9.13;;
72676;SDS011;60755;51.374;10.662;2023-02-15T02:06:33;12.77;;;8.57;;
72676;SDS011;60755;51.374;10.662;2023-02-15T02:09:07;13.43;;;8.03;;
72676;SDS011;60755;51.374;10.662;2023-02-15T02:11:35;16.17;;;8.60;;
72676;SDS011;60755;51.374;10.662;2023-02-15T02:14:03;16.07;;;8.27;;
72676;SDS011;60755;51.374;10.662;2023-02-15T02:16:32;15.03;;;7.97;;
72676;SDS011;60755;51.374;10.662;2023-02-15T02:19:25;14.57;;;8.43;;
72676;SDS011;60755;51.374;10.662;2023-02-15T02:25:24;16.40;;;8.93;;
72676;SDS011;60755;51.374;10.662;2023-02-15T02:28:13;17.83;;;9.17;;
72676;SDS011;60755;51.374;10.662;2023-02-15T02:31:13;16.17;;;8.43;;
72676;SDS011;60755;51.374;10.662;2023-02-15T02:34:01;15.43;;;8.60;;
72676;SDS011;60755;51.374;10.662;2023-02-15T02:36:33;18.83;;;10.33;;
72676;SDS011;60755;51.374;10.662;2023-02-15T02:39:09;14.17;;;9.07;;
72676;SDS011;60755;51.374;10.662;2023-02-15T02:41:50;15.33;;;9.00;;
72676;SDS011;60755;51.374;10.662;2023-02-15T02:44:26;15.53;;;8.67;;
72676;SDS011;60755;51.374;10.662;2023-02-15T02:46:59;15.87;;;8.70;;
72676;SDS011;60755;51.374;10.662;2023-02-15T02:49:34;14.60;;;8.30;;
72676;SDS011;60755;51.374;10.662;2023-02-15T02:52:03;14.00;;;8.43;;
72676;SDS011;60755;51.374;10.662;2023-02-15T02:54:32;14.77;;;8.63;;
72676;SDS011;60755;51.374;10.662;2023-02-15T02:57:03;15.63;;;8.30;;
72676;SDS011;60755;51.374;10.662;2023-02-15T02:59:36;15.13;;;8.70;;
72676;SDS011;60755;51.374;10.662;2023-02-15T03:02:09;11.90;;;7.40;;
72676;SDS011;60755;51.374;10.662;2023-02-15T03:04:44;11.87;;;6.97;;
72676;SDS011;60755;51.374;10.662;2023-02-15T03:07:14;12.13;;;7.20;;
72676;SDS011;60755;51.374;10.662;2023-02-15T03:09:48;11.40;;;6.80;;
72676;SDS011;60755;51.374;10.662;2023-02-15T03:12:19;10.17;;;6.73;;
72676;SDS011;60755;51.374;10.662;2023-02-15T03:14:49;10.47;;;6.90;;
72676;SDS011;60755;51.374;10.662;2023-02-15T03:17:20;9.13;;;6.07;;
72676;SDS011;60755;51.374;10.662;2023-02-15T03:19:51;9.07;;;5.87;;
72676;SDS011;60755;51.374;10.662;2023-02-15T03:22:24;9.40;;;6.40;;
72676;SDS011;60755;51.374;10.662;2023-02-15T03:24:56;9.90;;;5.87;;
72676;SDS011;60755;51.374;10.662;2023-02-15T03:27:27;7.20;;;5.43;;
72676;SDS011;60755;51.374;10.662;2023-02-15T03:30:01;8.83;;;5.90;;
72676;SDS011;60755;51.374;10.662;2023-02-15T03:32:30;7.63;;;5.27;;
72676;SDS011;60755;51.374;10.662;2023-02-15T03:35:01;17.77;;;8.90;;
72676;SDS011;60755;51.374;10.662;2023-02-15T03:37:30;17.60;;;9.17;;
72676;SDS011;60755;51.374;10.662;2023-02-15T03:40:03;11.53;;;6.87;;
72676;SDS011;60755;51.374;10.662;2023-02-15T03:42:51;8.63;;;5.63;;
72676;SDS011;60755;51.374;10.662;2023-02-15T03:45:22;9.47;;;6.77;;
72676;SDS011;60755;51.374;10.662;2023-02-15T03:47:52;10.07;;;7.27;;
72676;SDS011;60755;51.374;10.662;2023-02-15T03:50:26;9.43;;;6.00;;
72676;SDS011;60755;51.374;10.662;2023-02-15T03:53:14;8.97;;;6.07;;
72676;SDS011;60755;51.374;10.662;2023-02-15T03:55:46;8.67;;;6.43;;
72676;SDS011;60755;51.374;10.662;2023-02-15T03:58:14;9.53;;;6.20;;
72676;SDS011;60755;51.374;10.662;2023-02-15T04:00:59;8.83;;;5.93;;
72676;SDS011;60755;51.374;10.662;2023-02-15T04:04:00;7.80;;;5.33;;
72676;SDS011;60755;51.374;10.662;2023-02-15T04:06:35;9.07;;;5.80;;
72676;SDS011;60755;51.374;10.662;2023-02-15T04:09:02;10.27;;;6.67;;
72676;SDS011;60755;51.374;10.662;2023-02-15T04:11:47;12.57;;;6.40;;
72676;SDS011;60755;51.374;10.662;2023-02-15T04:14:14;12.07;;;7.20;;
72676;SDS011;60755;51.374;10.662;2023-02-15T04:16:59;9.97;;;6.47;;
72676;SDS011;60755;51.374;10.662;2023-02-15T04:19:26;11.73;;;7.73;;
72676;SDS011;60755;51.374;10.662;2023-02-15T04:22:12;10.37;;;7.40;;
72676;SDS011;60755;51.374;10.662;2023-02-15T04:24:57;9.80;;;6.80;;
72676;SDS011;60755;51.374;10.662;2023-02-15T04:27:36;9.57;;;7.10;;
72676;SDS011;60755;51.374;10.662;2023-02-15T04:30:04;7.97;;;5.70;;
72676;SDS011;60755;51.374;10.662;2023-02-15T04:32:32;8.90;;;5.83;;
72676;SDS011;60755;51.374;10.662;2023-02-15T04:35:00;8.33;;;5.50;;
72676;SDS011;60755;51.374;10.662;2023-02-15T04:37:28;8.83;;;6.00;;
72676;SDS011;60755;51.374;10.662;2023-02-15T04:39:56;7.57;;;5.13;;
72676;SDS011;60755;51.374;10.662;2023-02-15T04:42:24;8.00;;;5.73;;
72676;SDS011;60755;51.374;10.662;2023-02-15T04:44:51;9.20;;;6.67;;
72676;SDS011;60755;51.374;10.662;2023-02-15T04:47:19;9.33;;;6.80;;
72676;SDS011;60755;51.374;10.662;2023-02-15T04:49:46;18.17;;;9.80;;
72676;SDS011;60755;51.374;10.662;2023-02-15T04:52:14;12.40;;;7.83;;
72676;SDS011;60755;51.374;10.662;2023-02-15T04:54:44;35.67;;;17.80;;
72676;SDS011;60755;51.374;10.662;2023-02-15T04:57:11;22.90;;;13.63;;
72676;SDS011;60755;51.374;10.662;2023-02-15T04:59:39;12.17;;;8.27;;
72676;SDS011;60755;51.374;10.662;2023-02-15T05:02:06;12.17;;;7.73;;
72676;SDS011;60755;51.374;10.662;2023-02-15T05:04:34;11.23;;;7.00;;
72676;SDS011;60755;51.374;10.662;2023-02-15T05:07:02;9.17;;;6.17;;
72676;SDS011;60755;51.374;10.662;2023-02-15T05:09:29;9.67;;;6.07;;
72676;SDS011;60755;51.374;10.662;2023-02-15T05:11:58;8.43;;;5.77;;
72676;SDS011;60755;51.374;10.662;2023-02-15T05:14:25;6.03;;;5.03;;
72676;SDS011;60755;51.374;10.662;2023-02-15T05:16:52;9.20;;;5.80;;
72676;SDS011;60755;51.374;10.662;2023-02-15T05:19:20;7.03;;;5.60;;
72676;SDS011;60755;51.374;10.662;2023-02-15T05:21:48;6.90;;;5.17;;
72676;SDS011;60755;51.374;10.662;2023-02-15T05:24:15;7.30;;;5.80;;
72676;SDS011;60755;51.374;10.662;2023-02-15T05:27:02;7.80;;;5.93;;
72676;SDS011;60755;51.374;10.662;2023-02-15T05:29:47;7.27;;;5.23;;
72676;SDS011;60755;51.374;10.662;2023-02-15T05:32:14;7.57;;;5.53;;
72676;SDS011;60755;51.374;10.662;2023-02-15T05:34:41;7.10;;;5.30;;
72676;SDS011;60755;51.374;10.662;2023-02-15T05:37:09;10.43;;;6.70;;
72676;SDS011;60755;51.374;10.662;2023-02-15T05:39:36;7.57;;;5.53;;
72676;SDS011;60755;51.374;10.662;2023-02-15T05:42:04;8.17;;;4.93;;
72676;SDS011;60755;51.374;10.662;2023-02-15T05:44:32;8.93;;;5.53;;
72676;SDS011;60755;51.374;10.662;2023-02-15T05:46:59;7.50;;;5.30;;
72676;SDS011;60755;51.374;10.662;2023-02-15T05:49:28;9.83;;;5.90;;
72676;SDS011;60755;51.374;10.662;2023-02-15T05:51:56;6.47;;;4.97;;
72676;SDS011;60755;51.374;10.662;2023-02-15T05:54:24;7.07;;;5.70;;
72676;SDS011;60755;51.374;10.662;2023-02-15T05:56:51;7.57;;;5.53;;
72676;SDS011;60755;51.374;10.662;2023-02-15T05:59:20;9.03;;;6.60;;
72676;SDS011;60755;51.374;10.662;2023-02-15T06:01:47;9.57;;;6.70;;
72676;SDS011;60755;51.374;10.662;2023-02-15T06:04:14;11.13;;;6.70;;
72676;SDS011;60755;51.374;10.662;2023-02-15T06:06:41;10.03;;;6.97;;
72676;SDS011;60755;51.374;10.662;2023-02-15T06:09:09;11.30;;;6.50;;
72676;SDS011;60755;51.374;10.662;2023-02-15T06:11:37;11.50;;;7.40;;
72676;SDS011;60755;51.374;10.662;2023-02-15T06:14:04;11.63;;;7.73;;
72676;SDS011;60755;51.374;10.662;2023-02-15T06:16:33;13.37;;;7.73;;
72676;SDS011;60755;51.374;10.662;2023-02-15T06:19:00;11.77;;;8.00;;
72676;SDS011;60755;51.374;10.662;2023-02-15T06:21:27;16.20;;;9.43;;
72676;SDS011;60755;51.374;10.662;2023-02-15T06:23:54;11.57;;;7.70;;
72676;SDS011;60755;51.374;10.662;2023-02-15T06:26:22;13.97;;;8.60;;
72676;SDS011;60755;51.374;10.662;2023-02-15T06:28:49;19.07;;;10.83;;
72676;SDS011;60755;51.374;10.662;2023-02-15T06:31:16;30.57;;;15.07;;
72676;SDS011;60755;51.374;10.662;2023-02-15T06:33:45;32.53;;;16.13;;
72676;SDS011;60755;51.374;10.662;2023-02-15T06:36:12;28.53;;;14.23;;
72676;SDS011;60755;51.374;10.662;2023-02-15T06:38:39;29.90;;;13.77;;
72676;SDS011;60755;51.374;10.662;2023-02-15T06:41:06;26.63;;;12.80;;
72676;SDS011;60755;51.374;10.662;2023-02-15T06:43:34;21.67;;;11.50;;
72676;SDS011;60755;51.374;10.662;2023-02-15T06:46:01;23.23;;;11.43;;
72676;SDS011;60755;51.374;10.662;2023-02-15T06:48:28;20.80;;;10.80;;
72676;SDS011;60755;51.374;10.662;2023-02-15T06:50:56;23.60;;;12.83;;
72676;SDS011;60755;51.374;10.662;2023-02-15T06:53:24;19.70;;;10.80;;
72676;SDS011;60755;51.374;10.662;2023-02-15T06:55:51;36.27;;;20.07;;
72676;SDS011;60755;51.374;10.662;2023-02-15T06:58:18;17.33;;;10.60;;
72676;SDS011;60755;51.374;10.662;2023-02-15T07:00:45;21.90;;;12.80;;
72676;SDS011;60755;51.374;10.662;2023-02-15T07:03:13;22.57;;;13.30;;
72676;SDS011;60755;51.374;10.662;2023-02-15T07:05:41;20.37;;;13.00;;
72676;SDS011;60755;51.374;10.662;2023-02-15T07:08:10;19.67;;;12.30;;
72676;SDS011;60755;51.374;10.662;2023-02-15T07:10:37;16.87;;;11.80;;
72676;SDS011;60755;51.374;10.662;2023-02-15T07:13:04;13.57;;;8.70;;
72676;SDS011;60755;51.374;10.662;2023-02-15T07:15:31;9.80;;;7.37;;
72676;SDS011;60755;51.374;10.662;2023-02-15T07:17:58;8.53;;;6.30;;
72676;SDS011;60755;51.374;10.662;2023-02-15T07:20:25;10.23;;;7.90;;
72676;SDS011;60755;51.374;10.662;2023-02-15T07:22:52;10.90;;;7.40;;
72676;SDS011;60755;51.374;10.662;2023-02-15T07:25:21;10.07;;;6.20;;
72676;SDS011;60755;51.374;10.662;2023-02-15T07:27:48;9.60;;;6.87;;
72676;SDS011;60755;51.374;10.662;2023-02-15T07:30:21;9.47;;;6.57;;
72676;SDS011;60755;51.374;10.662;2023-02-15T07:32:48;9.00;;;6.80;;
72676;SDS011;60755;51.374;10.662;2023-02-15T07:35:33;10.50;;;8.33;;
72676;SDS011;60755;51.374;10.662;2023-02-15T07:38:01;10.03;;;8.20;;
72676;SDS011;60755;51.374;10.662;2023-02-15T07:40:29;15.63;;;10.90;;
72676;SDS011;60755;51.374;10.662;2023-02-15T07:42:57;23.90;;;17.87;;
72676;SDS011;60755;51.374;10.662;2023-02-15T07:45:25;17.03;;;11.53;;
72676;SDS011;60755;51.374;10.662;2023-02-15T07:47:52;16.17;;;10.47;;
72676;SDS011;60755;51.374;10.662;2023-02-15T07:50:19;27.60;;;17.93;;
72676;SDS011;60755;51.374;10.662;2023-02-15T07:52:47;20.87;;;13.97;;
72676;SDS011;60755;51.374;10.662;2023-02-15T07:55:14;18.10;;;12.60;;
72676;SDS011;60755;51.374;10.662;2023-02-15T07:57:43;15.43;;;10.90;;
72676;SDS011;60755;51.374;10.662;2023-02-15T08:00:12;12.60;;;8.73;;
72676;SDS011;60755;51.374;10.662;2023-02-15T08:02:40;12.87;;;8.40;;
72676;SDS011;60755;51.374;10.662;2023-02-15T08:05:08;11.93;;;8.27;;
72676;SDS011;60755;51.374;10.662;2023-02-15T08:07:35;16.77;;;11.37;;
72676;SDS011;60755;51.374;10.662;2023-02-15T08:10:02;12.43;;;8.53;;
72676;SDS011;60755;51.374;10.662;2023-02-15T08:12:30;18.60;;;13.37;;
72676;SDS011;60755;51.374;10.662;2023-02-15T08:14:58;18.50;;;12.07;;
72676;SDS011;60755;51.374;10.662;2023-02-15T08:17:25;16.73;;;10.70;;
72676;SDS011;60755;51.374;10.662;2023-02-15T08:19:53;12.60;;;8.83;;
72676;SDS011;60755;51.374;10.662;2023-02-15T08:22:20;13.70;;;8.53;;
72676;SDS011;60755;51.374;10.662;2023-02-15T08:24:47;13.20;;;8.43;;
72676;SDS011;60755;51.374;10.662;2023-02-15T08:27:14;7.83;;;6.30;;
72676;SDS011;60755;51.374;10.662;2023-02-15T08:29:41;7.20;;;5.90;;
72676;SDS011;60755;51.374;10.662;2023-02-15T08:32:11;6.07;;;5.47;;
72676;SDS011;60755;51.374;10.662;2023-02-15T08:34:40;6.27;;;5.20;;
72676;SDS011;60755;51.374;10.662;2023-02-15T08:37:08;5.73;;;4.87;;
72676;SDS011;60755;51.374;10.662;2023-02-15T08:39:35;6.40;;;4.93;;
72676;SDS011;60755;51.374;10.662;2023-02-15T08:42:03;5.83;;;4.90;;
72676;SDS011;60755;51.374;10.662;2023-02-15T08:44:30;9.23;;;6.23;;
72676;SDS011;60755;51.374;10.662;2023-02-15T08:46:57;4.90;;;4.27;;
72676;SDS011;60755;51.374;10.662;2023-02-15T08:49:30;5.83;;;4.37;;
72676;SDS011;60755;51.374;10.662;2023-02-15T08:51:58;4.73;;;4.20;;
72676;SDS011;60755;51.374;10.662;2023-02-15T08:54:25;5.53;;;4.20;;
72676;SDS011;60755;51.374;10.662;2023-02-15T08:56:52;4.50;;;3.93;;
72676;SDS011;60755;51.374;10.662;2023-02-15T08:59:20;4.60;;;4.17;;
72676;SDS011;60755;51.374;10.662;2023-02-15T09:01:49;18.40;;;14.07;;
72676;SDS011;60755;51.374;10.662;2023-02-15T09:04:17;14.27;;;11.53;;
72676;SDS011;60755;51.374;10.662;2023-02-15T09:06:47;16.37;;;12.67;;
72676;SDS011;60755;51.374;10.662;2023-02-15T09:09:15;5.87;;;5.23;;
72676;SDS011;60755;51.374;10.662;2023-02-15T09:11:43;4.77;;;4.17;;
72676;SDS011;60755;51.374;10.662;2023-02-15T09:14:13;6.03;;;4.17;;
72676;SDS011;60755;51.374;10.662;2023-02-15T09:16:41;4.27;;;3.87;;
72676;SDS011;60755;51.374;10.662;2023-02-15T09:19:11;4.20;;;3.80;;
72676;SDS011;60755;51.374;10.662;2023-02-15T09:21:39;4.00;;;3.43;;
72676;SDS011;60755;51.374;10.662;2023-02-15T09:24:08;3.63;;;3.30;;
72676;SDS011;60755;51.374;10.662;2023-02-15T09:26:38;4.03;;;3.23;;
72676;SDS011;60755;51.374;10.662;2023-02-15T09:29:07;6.33;;;3.53;;
72676;SDS011;60755;51.374;10.662;2023-02-15T09:31:37;3.50;;;3.20;;
72676;SDS011;60755;51.374;10.662;2023-02-15T09:34:06;3.57;;;3.27;;
72676;SDS011;60755;51.374;10.662;2023-02-15T09:36:34;3.53;;;3.23;;
72676;SDS011;60755;51.374;10.662;2023-02-15T09:39:04;3.67;;;3.33;;
72676;SDS011;60755;51.374;10.662;2023-02-15T09:44:49;3.60;;;3.10;;
72676;SDS011;60755;51.374;10.662;2023-02-15T09:47:35;3.60;;;3.00;;
72676;SDS011;60755;51.374;10.662;2023-02-15T09:50:15;4.50;;;4.10;;
72676;SDS011;60755;51.374;10.662;2023-02-15T09:52:55;4.27;;;3.93;;
72676;SDS011;60755;51.374;10.662;2023-02-15T09:55:38;5.13;;;4.63;;
72676;SDS011;60755;51.374;10.662;2023-02-15T09:58:13;6.20;;;5.60;;
72676;SDS011;60755;51.374;10.662;2023-02-15T10:00:53;6.27;;;5.53;;
72676;SDS011;60755;51.374;10.662;2023-02-15T10:03:33;7.03;;;5.83;;
72676;SDS011;60755;51.374;10.662;2023-02-15T10:06:13;8.10;;;6.57;;
72676;SDS011;60755;51.374;10.662;2023-02-15T10:09:03;6.83;;;6.00;;
72676;SDS011;60755;51.374;10.662;2023-02-15T10:11:58;8.07;;;6.97;;
72676;SDS011;60755;51.374;10.662;2023-02-15T10:14:43;9.10;;;6.73;;
72676;SDS011;60755;51.374;10.662;2023-02-15T10:17:39;10.57;;;6.80;;
72676;SDS011;60755;51.374;10.662;2023-02-15T10:20:17;9.00;;;6.57;;
72676;SDS011;60755;51.374;10.662;2023-02-15T10:23:01;10.07;;;6.30;;
72676;SDS011;60755;51.374;10.662;2023-02-15T10:25:40;10.53;;;7.10;;
72676;SDS011;60755;51.374;10.662;2023-02-15T10:28:15;10.93;;;7.90;;
72676;SDS011;60755;51.374;10.662;2023-02-15T10:30:46;10.57;;;7.50;;
72676;SDS011;60755;51.374;10.662;2023-02-15T10:33:21;9.63;;;7.77;;
72676;SDS011;60755;51.374;10.662;2023-02-15T10:36:03;8.80;;;7.00;;
72676;SDS011;60755;51.374;10.662;2023-02-15T10:38:42;8.53;;;6.97;;
72676;SDS011;60755;51.374;10.662;2023-02-15T10:41:20;8.90;;;6.57;;
72676;SDS011;60755;51.374;10.662;2023-02-15T10:44:05;7.20;;;6.10;;
72676;SDS011;60755;51.374;10.662;2023-02-15T10:46:52;7.47;;;6.20;;
72676;SDS011;60755;51.374;10.662;2023-02-15T10:49:37;6.97;;;5.90;;
72676;SDS011;60755;51.374;10.662;2023-02-15T10:52:20;6.27;;;5.67;;
72676;SDS011;60755;51.374;10.662;2023-02-15T10:54:58;7.53;;;5.23;;
72676;SDS011;60755;51.374;10.662;2023-02-15T10:57:34;6.37;;;5.50;;
72676;SDS011;60755;51.374;10.662;2023-02-15T11:00:13;7.00;;;5.77;;
72676;SDS011;60755;51.374;10.662;2023-02-15T11:02:57;6.80;;;5.17;;
72676;SDS011;60755;51.374;10.662;2023-02-15T11:05:48;5.13;;;4.57;;
72676;SDS011;60755;51.374;10.662;2023-02-15T11:08:28;4.60;;;4.20;;
72676;SDS011;60755;51.374;10.662;2023-02-15T11:10:59;5.50;;;4.77;;
72676;SDS011;60755;51.374;10.662;2023-02-15T11:13:32;5.00;;;4.50;;
72676;SDS011;60755;51.374;10.662;2023-02-15T11:16:03;8.37;;;6.10;;
72676;SDS011;60755;51.374;10.662;2023-02-15T11:18:35;8.17;;;6.47;;
72676;SDS011;60755;51.374;10.662;2023-02-15T11:21:09;9.67;;;7.10;;
72676;SDS011;60755;51.374;10.662;2023-02-15T11:23:40;7.67;;;5.97;;
72676;SDS011;60755;51.374;10.662;2023-02-15T11:26:11;7.03;;;6.33;;
72676;SDS011;60755;51.374;10.662;2023-02-15T11:28:43;9.00;;;5.80;;
72676;SDS011;60755;51.374;10.662;2023-02-15T11:31:17;8.13;;;6.27;;
72676;SDS011;60755;51.374;10.662;2023-02-15T11:33:47;7.97;;;6.53;;
72676;SDS011;60755;51.374;10.662;2023-02-15T11:36:20;7.07;;;6.23;;
72676;SDS011;60755;51.374;10.662;2023-02-15T11:38:50;8.60;;;7.07;;
72676;SDS011;60755;51.374;10.662;2023-02-15T11:41:24;9.40;;;6.90;;
72676;SDS011;60755;51.374;10.662;2023-02-15T11:43:56;11.10;;;6.97;;
72676;SDS011;60755;51.374;10.662;2023-02-15T11:46:27;9.37;;;7.43;;
72676;SDS011;60755;51.374;10.662;2023-02-15T11:48:54;10.00;;;7.53;;
72676;SDS011;60755;51.374;10.662;2023-02-15T11:51:23;9.90;;;6.93;;
72676;SDS011;60755;51.374;10.662;2023-02-15T11:53:53;11.20;;;7.83;;
72676;SDS011;60755;51.374;10.662;2023-02-15T11:56:21;9.77;;;7.87;;
72676;SDS011;60755;51.374;10.662;2023-02-15T11:58:51;10.30;;;7.50;;
72676;SDS011;60755;51.374;10.662;2023-02-15T12:01:23;12.37;;;8.30;;
72676;SDS011;60755;51.374;10.662;2023-02-15T12:03:56;10.50;;;7.60;;
72676;SDS011;60755;51.374;10.662;2023-02-15T12:06:30;8.73;;;7.33;;
72676;SDS011;60755;51.374;10.662;2023-02-15T12:09:02;8.40;;;6.93;;
72676;SDS011;60755;51.374;10.662;2023-02-15T12:11:34;10.40;;;7.57;;
72676;SDS011;60755;51.374;10.662;2023-02-15T12:14:04;8.73;;;7.23;;
72676;SDS011;60755;51.374;10.662;2023-02-15T12:16:33;7.57;;;6.27;;
72676;SDS011;60755;51.374;10.662;2023-02-15T12:19:10;8.23;;;6.83;;
72676;SDS011;60755;51.374;10.662;2023-02-15T12:21:51;7.30;;;6.27;;
72676;SDS011;60755;51.374;10.662;2023-02-15T12:24:21;7.87;;;6.30;;
72676;SDS011;60755;51.374;10.662;2023-02-15T12:26:59;8.93;;;6.23;;
72676;SDS011;60755;51.374;10.662;2023-02-15T12:29:30;6.70;;;6.00;;
72676;SDS011;60755;51.374;10.662;2023-02-15T12:32:01;7.50;;;6.03;;
72676;SDS011;60755;51.374;10.662;2023-02-15T12:34:30;7.10;;;6.27;;
72676;SDS011;60755;51.374;10.662;2023-02-15T12:37:09;7.43;;;6.20;;
72676;SDS011;60755;51.374;10.662;2023-02-15T12:39:50;7.10;;;6.30;;
72676;SDS011;60755;51.374;10.662;2023-02-15T12:42:19;8.87;;;6.40;;
72676;SDS011;60755;51.374;10.662;2023-02-15T12:44:54;13.47;;;6.87;;
72676;SDS011;60755;51.374;10.662;2023-02-15T12:47:28;6.97;;;6.10;;
72676;SDS011;60755;51.374;10.662;2023-02-15T12:50:07;7.53;;;6.63;;
72676;SDS011;60755;51.374;10.662;2023-02-15T12:52:44;7.70;;;6.50;;
72676;SDS011;60755;51.374;10.662;2023-02-15T12:55:20;7.23;;;6.50;;
72676;SDS011;60755;51.374;10.662;2023-02-15T12:58:04;7.70;;;6.03;;
72676;SDS011;60755;51.374;10.662;2023-02-15T13:00:32;8.90;;;6.00;;
72676;SDS011;60755;51.374;10.662;2023-02-15T13:03:00;7.13;;;6.20;;
72676;SDS011;60755;51.374;10.662;2023-02-15T13:05:30;8.77;;;6.10;;
72676;SDS011;60755;51.374;10.662;2023-02-15T13:08:03;7.07;;;5.90;;
72676;SDS011;60755;51.374;10.662;2023-02-15T13:10:39;9.10;;;5.27;;
72676;SDS011;60755;51.374;10.662;2023-02-15T13:13:09;6.30;;;5.70;;
72676;SDS011;60755;51.374;10.662;2023-02-15T13:15:38;6.60;;;5.93;;
72676;SDS011;60755;51.374;10.662;2023-02-15T13:18:10;8.27;;;6.13;;
72676;SDS011;60755;51.374;10.662;2023-02-15T13:20:41;5.97;;;5.37;;
72676;SDS011;60755;51.374;10.662;2023-02-15T13:23:17;6.77;;;5.93;;
72676;SDS011;60755;51.374;10.662;2023-02-15T13:25:54;8.03;;;6.27;;
72676;SDS011;60755;51.374;10.662;2023-02-15T13:28:24;8.63;;;6.27;;
72676;SDS011;60755;51.374;10.662;2023-02-15T13:31:08;6.10;;;5.50;;
72676;SDS011;60755;51.374;10.662;2023-02-15T13:33:40;7.17;;;5.87;;
72676;SDS011;60755;51.374;10.662;2023-02-15T13:36:12;8.20;;;5.80;;
72676;SDS011;60755;51.374;10.662;2023-02-15T13:38:48;7.13;;;6.17;;
72676;SDS011;60755;51.374;10.662;2023-02-15T13:41:25;6.47;;;5.77;;
72676;SDS011;60755;51.374;10.662;2023-02-15T13:43:59;8.63;;;6.00;;
72676;SDS011;60755;51.374;10.662;2023-02-15T13:46:43;7.17;;;6.00;;
72676;SDS011;60755;51.374;10.662;2023-02-15T13:49:23;7.90;;;6.73;;
72676;SDS011;60755;51.374;10.662;2023-02-15T13:52:08;8.80;;;6.13;;
72676;SDS011;60755;51.374;10.662;2023-02-15T13:54:49;7.70;;;6.50;;
72676;SDS011;60755;51.374;10.662;2023-02-15T14:00:21;7.80;;;6.23;;
72676;SDS011;60755;51.374;10.662;2023-02-15T14:02:59;8.80;;;6.83;;
72676;SDS011;60755;51.374;10.662;2023-02-15T14:05:53;6.87;;;6.07;;
72676;SDS011;60755;51.374;10.662;2023-02-15T14:08:36;7.27;;;6.20;;
72676;SDS011;60755;51.374;10.662;2023-02-15T14:11:15;7.53;;;6.60;;
72676;SDS011;60755;51.374;10.662;2023-02-15T14:16:47;13.07;;;9.30;;
72676;SDS011;60755;51.374;10.662;2023-02-15T14:19:24;12.63;;;9.60;;
72676;SDS011;60755;51.374;10.662;2023-02-15T14:21:57;8.93;;;7.50;;
72676;SDS011;60755;51.374;10.662;2023-02-15T14:24:30;10.10;;;7.23;;
72676;SDS011;60755;51.374;10.662;2023-02-15T14:27:07;8.27;;;6.60;;
72676;SDS011;60755;51.374;10.662;2023-02-15T14:29:47;8.30;;;6.77;;
72676;SDS011;60755;51.374;10.662;2023-02-15T14:32:19;7.83;;;6.60;;
72676;SDS011;60755;51.374;10.662;2023-02-15T14:34:52;9.40;;;7.27;;
72676;SDS011;60755;51.374;10.662;2023-02-15T14:37:26;10.37;;;6.80;;
72676;SDS011;60755;51.374;10.662;2023-02-15T14:40:02;9.10;;;7.37;;
72676;SDS011;60755;51.374;10.662;2023-02-15T14:42:57;9.73;;;7.13;;
72676;SDS011;60755;51.374;10.662;2023-02-15T14:45:34;10.37;;;6.77;;
72676;SDS011;60755;51.374;10.662;2023-02-15T14:48:10;8.13;;;6.93;;
72676;SDS011;60755;51.374;10.662;2023-02-15T14:50:44;10.13;;;7.10;;
72676;SDS011;60755;51.374;10.662;2023-02-15T14:53:32;8.47;;;7.47;;
72676;SDS011;60755;51.374;10.662;2023-02-15T14:58:56;10.60;;;7.10;;
72676;SDS011;60755;51.374;10.662;2023-02-15T15:01:26;8.80;;;6.90;;
72676;SDS011;60755;51.374;10.662;2023-02-15T15:03:56;10.20;;;7.20;;
72676;SDS011;60755;51.374;10.662;2023-02-15T15:06:27;9.03;;;7.00;;
72676;SDS011;60755;51.374;10.662;2023-02-15T15:08:58;8.07;;;6.60;;
72676;SDS011;60755;51.374;10.662;2023-02-15T15:11:38;9.87;;;7.10;;